Time;durP1;ratioP1;P1;durP2;ratioP2;P2;SDS_P1;SDS_P2;PMS_P1;PMS_P2;Temp;Humidity;BMP_temperature;BMP_pressure;BME280_temperature;BME280_humidity;BME280_pressure;Samples;Min_cycle;Max_cycle;Signal;HPM_P1;HPM_P2
2023/06/10 00:02:01;;;;;;;6.43;5.68;;;;;;;20.44;51.13;101535.06;5093714;28;20438;-76
2023/06/10 00:04:28;;;;;;;9.13;5.95;;;;;;;20.42;51.06;101532.09;5093728;28;20501;-76
2023/06/10 00:06:55;;;;;;;6.28;5.65;;;;;;;20.41;51.04;101530.63;5093558;28;20040;-76
2023/06/10 00:09:22;;;;;;;9.05;6.15;;;;;;;20.39;51.06;101533.09;5093403;28;20052;-76
2023/06/10 00:11:49;;;;;;;8.73;5.55;;;;;;;20.35;50.75;101538.72;5093298;28;20040;-75
2023/06/10 00:14:15;;;;;;;7.05;5.95;;;;;;;20.32;50.81;101534.28;5092695;28;20571;-75
2023/06/10 00:16:44;;;;;;;7.88;5.75;;;;;;;20.30;50.63;101542.16;5093808;28;20123;-75
2023/06/10 00:19:13;;;;;;;9.15;5.50;;;;;;;20.26;51.01;101539.69;5091499;28;20045;-75
2023/06/10 00:21:40;;;;;;;6.80;6.10;;;;;;;20.22;51.15;101549.25;5093237;28;20543;-76
2023/06/10 00:24:14;;;;;;;7.05;5.53;;;;;;;20.18;51.55;101540.63;5092965;28;20493;-75
2023/06/10 00:26:41;;;;;;;6.95;5.63;;;;;;;20.15;50.75;101542.34;5092977;28;20040;-75
2023/06/10 00:29:08;;;;;;;7.82;5.65;;;;;;;20.09;50.76;101544.28;5092986;28;20449;-75
2023/06/10 00:31:37;;;;;;;5.57;5.03;;;;;;;20.06;50.85;101539.84;5093335;28;20508;-75
2023/06/10 00:34:07;;;;;;;9.60;5.30;;;;;;;20.05;50.38;101538.38;5092882;28;20049;-75
2023/06/10 00:36:33;;;;;;;6.20;5.60;;;;;;;20.03;50.42;101545.47;5092146;28;20515;-75
2023/06/10 00:39:00;;;;;;;6.43;5.75;;;;;;;19.98;50.48;101544.25;5093002;28;20481;-77
2023/06/10 00:41:27;;;;;;;7.30;5.65;;;;;;;19.97;50.30;101548.19;5091131;28;20558;-75
2023/06/10 00:43:53;;;;;;;6.55;5.95;;;;;;;19.92;50.33;101548.91;5091484;28;20497;-75
2023/06/10 00:46:23;;;;;;;10.77;6.05;;;;;;;19.89;50.05;101542.50;5092838;28;20040;-75
2023/06/10 00:48:50;;;;;;;7.15;5.68;;;;;;;19.87;49.86;101549.59;5093092;28;20131;-74
2023/06/10 00:51:18;;;;;;;8.38;5.65;;;;;;;19.86;50.13;101558.94;5091196;28;20079;-75
2023/06/10 00:53:45;;;;;;;9.32;6.03;;;;;;;19.81;50.46;101551.53;5091613;28;20106;-75
2023/06/10 00:56:13;;;;;;;12.68;6.35;;;;;;;19.77;49.61;101549.06;5090935;28;20052;-75
2023/06/10 00:58:40;;;;;;;9.77;6.43;;;;;;;19.76;49.57;101549.56;5092934;28;20533;-75
2023/06/10 01:01:06;;;;;;;8.73;5.97;;;;;;;19.73;49.77;101545.09;5090995;28;20036;-77
2023/06/10 01:03:36;;;;;;;6.30;5.70;;;;;;;19.69;49.27;101550.00;5091337;28;20519;-75
2023/06/10 01:06:14;;;;;;;10.50;5.20;;;;;;;19.67;49.49;101550.47;5091175;28;20052;-75
2023/06/10 01:08:51;;;;;;;10.57;5.65;;;;;;;19.65;49.03;101550.97;5091846;28;20613;-75
2023/06/10 01:11:23;;;;;;;6.30;5.70;;;;;;;19.64;48.98;101552.19;5091716;28;20493;-75
2023/06/10 01:13:54;;;;;;;9.20;5.93;;;;;;;19.62;49.21;101548.47;5092165;28;20052;-75
2023/06/10 01:16:23;;;;;;;6.45;5.55;;;;;;;19.58;49.17;101554.13;5092533;28;20082;-75
2023/06/10 01:18:50;;;;;;;7.03;5.13;;;;;;;19.55;49.28;101557.81;5092952;28;20044;-76
2023/06/10 01:21:21;;;;;;;8.35;5.60;;;;;;;19.54;48.90;101556.31;5092200;28;20040;-76
2023/06/10 01:23:47;;;;;;;6.25;5.50;;;;;;;19.53;49.19;101556.81;5091349;28;20053;-76
2023/06/10 01:26:15;;;;;;;10.52;5.68;;;;;;;19.52;49.28;101566.88;5091346;28;20048;-76
2023/06/10 01:28:57;;;;;;;6.00;5.40;;;;;;;19.49;49.43;101556.25;5092751;28;20900;-77
2023/06/10 01:31:37;;;;;;;9.13;5.63;;;;;;;19.47;49.10;101562.13;5091517;28;20044;-77
2023/06/10 01:34:08;;;;;;;6.35;5.32;;;;;;;19.43;49.78;101550.06;5090760;28;20847;-76
2023/06/10 01:36:36;;;;;;;;;;;;;;;19.41;49.44;101561.34;5091372;28;20473;-76
2023/06/10 01:39:04;;;;;;;9.55;5.35;;;;;;;19.37;50.06;101552.00;5091723;28;19924;-76
2023/06/10 01:41:32;;;;;;;8.27;5.28;;;;;;;19.35;49.97;101560.56;5090697;28;20098;-76
2023/06/10 01:43:59;;;;;;;8.23;5.40;;;;;;;19.31;50.23;101563.50;5090399;28;20053;-76
2023/06/10 01:46:25;;;;;;;8.85;5.22;;;;;;;19.30;50.72;101555.88;5092007;28;20041;-76
2023/06/10 01:48:52;;;;;;;9.80;5.45;;;;;;;19.27;49.87;101557.56;5092600;28;20087;-76
2023/06/10 01:51:18;;;;;;;5.57;5.07;;;;;;;19.24;50.49;101555.84;5091662;28;20543;-75
2023/06/10 01:53:45;;;;;;;5.63;5.13;;;;;;;19.21;50.59;101556.78;5091995;28;20051;-75
2023/06/10 01:56:16;;;;;;;5.40;4.95;;;;;;;19.19;50.54;101564.63;5092600;28;20055;-75
2023/06/10 01:58:43;;;;;;;5.45;5.00;;;;;;;19.16;50.56;101549.41;5094412;28;20044;-75
2023/06/10 02:01:10;;;;;;;6.25;5.10;;;;;;;19.11;51.83;101558.19;5093771;28;20052;-76
2023/06/10 02:03:37;;;;;;;6.68;5.45;;;;;;;19.07;51.08;101556.94;5096349;28;20049;-77
2023/06/10 02:06:04;;;;;;;5.93;5.22;;;;;;;19.03;51.84;101561.81;5094294;28;20420;-75
2023/06/10 02:08:31;;;;;;;5.63;5.22;;;;;;;19.00;52.32;101566.19;5095235;28;20041;-76
2023/06/10 02:10:59;;;;;;;5.53;5.10;;;;;;;18.97;52.10;101559.06;5093980;28;20133;-76
2023/06/10 02:13:28;;;;;;;7.53;4.75;;;;;;;18.94;52.41;101555.34;5093697;28;20056;-76
2023/06/10 02:15:55;;;;;;;7.60;5.50;;;;;;;18.92;52.12;101562.44;5095212;28;20045;-75
2023/06/10 02:18:22;;;;;;;9.60;5.35;;;;;;;18.90;52.38;101564.88;5093920;28;20053;-76
2023/06/10 02:20:48;;;;;;;6.60;5.18;;;;;;;18.84;54.15;101559.44;5094241;28;20095;-76
2023/06/10 02:23:15;;;;;;;7.53;5.47;;;;;;;18.79;53.20;101559.41;5094396;28;20068;-76
2023/06/10 02:25:42;;;;;;;6.00;5.43;;;;;;;18.74;54.04;101568.19;5095716;28;20118;-75
2023/06/10 02:28:08;;;;;;;8.52;5.70;;;;;;;18.67;54.15;101569.34;5093287;28;20052;-73
2023/06/10 02:30:35;;;;;;;5.47;4.97;;;;;;;18.64;54.53;101575.69;5095295;28;20547;-76
2023/06/10 02:33:03;;;;;;;8.10;5.15;;;;;;;18.60;54.53;101575.88;5093428;28;20056;-76
2023/06/10 02:35:29;;;;;;;10.68;5.47;;;;;;;18.56;55.51;101579.97;5093722;28;20076;-77
2023/06/10 02:37:56;;;;;;;7.65;5.78;;;;;;;18.52;55.67;101584.84;5093217;28;20514;-76
2023/06/10 02:40:23;;;;;;;7.18;5.70;;;;;;;18.47;55.64;101582.81;5093154;28;20049;-77
2023/06/10 02:42:49;;;;;;;9.88;5.10;;;;;;;18.42;55.72;101580.78;5093353;28;20522;-76
2023/06/10 02:45:16;;;;;;;6.85;5.53;;;;;;;18.39;56.07;101577.13;5093110;28;20051;-77
2023/06/10 02:47:43;;;;;;;7.38;5.88;;;;;;;18.34;55.89;101577.78;5093588;28;20514;-75
2023/06/10 02:50:11;;;;;;;10.82;5.93;;;;;;;18.32;56.00;101580.97;5092923;28;20055;-75
2023/06/10 02:52:48;;;;;;;6.25;5.47;;;;;;;18.31;55.96;101581.44;5093001;28;20048;-75
2023/06/10 02:55:15;;;;;;;7.15;5.65;;;;;;;18.27;56.17;101580.88;5092641;28;20052;-74
2023/06/10 02:57:48;;;;;;;5.35;4.90;;;;;;;18.24;56.73;101577.19;5077633;28;20049;-75
2023/06/10 03:00:16;;;;;;;9.35;5.35;;;;;;;18.20;56.42;101578.59;5092722;28;20055;-74
2023/06/10 03:02:45;;;;;;;7.07;5.50;;;;;;;18.16;56.68;101578.78;5093265;28;20501;-75
2023/06/10 03:05:13;;;;;;;8.95;5.38;;;;;;;18.13;57.51;101579.75;5092988;28;20045;-74
2023/06/10 03:07:43;;;;;;;6.20;5.53;;;;;;;18.11;57.24;101576.03;5092795;28;20056;-75
2023/06/10 03:10:09;;;;;;;7.85;5.40;;;;;;;18.10;57.15;101577.97;5094278;28;20349;-75
2023/06/10 03:12:38;;;;;;;9.57;5.68;;;;;;;18.09;56.86;101578.47;5076670;28;20501;-75
2023/06/10 03:15:06;;;;;;;5.40;4.90;;;;;;;18.07;57.16;101576.22;5092465;28;20045;-76
2023/06/10 03:17:34;;;;;;;7.22;4.90;;;;;;;18.03;57.65;101578.38;5093014;28;20060;-75
2023/06/10 03:20:01;;;;;;;6.35;5.70;;;;;;;18.01;57.47;101580.81;5075643;28;20088;-75
2023/06/10 03:22:28;;;;;;;6.78;5.60;;;;;;;18.01;57.52;101578.09;5092576;28;20476;-75
2023/06/10 03:25:03;;;;;;;7.63;5.40;;;;;;;17.98;57.85;101581.78;5092436;28;20052;-75
2023/06/10 03:27:31;;;;;;;9.05;6.05;;;;;;;17.98;57.88;101582.50;5092615;28;20144;-75
2023/06/10 03:30:00;;;;;;;10.70;5.45;;;;;;;17.98;57.67;101589.84;5092259;28;20452;-75
2023/06/10 03:32:27;;;;;;;9.30;5.75;;;;;;;17.95;57.95;101580.75;5092602;28;20091;-74
2023/06/10 03:34:57;;;;;;;7.18;5.50;;;;;;;17.96;57.88;101592.28;5092057;28;20471;-74
2023/06/10 03:37:26;;;;;;;10.23;5.70;;;;;;;17.94;57.84;101586.59;5092558;28;20049;-75
2023/06/10 03:39:53;;;;;;;9.38;5.38;;;;;;;17.95;58.33;101590.78;5092573;28;20048;-74
2023/06/10 03:42:20;;;;;;;7.55;5.18;;;;;;;17.95;58.46;101593.47;5092351;28;20075;-74
2023/06/10 03:44:47;;;;;;;7.90;5.68;;;;;;;17.94;58.69;101592.00;5092891;28;20068;-74
2023/06/10 03:47:13;;;;;;;6.20;5.60;;;;;;;17.93;58.62;101593.22;5094294;28;20044;-74
2023/06/10 03:49:40;;;;;;;6.25;5.65;;;;;;;17.93;58.76;101596.66;5091874;28;20497;-75
2023/06/10 03:52:07;;;;;;;8.55;5.05;;;;;;;17.91;59.22;101596.38;5092000;28;20045;-75
2023/06/10 03:54:36;;;;;;;6.68;5.43;;;;;;;17.92;58.50;101599.81;5094081;28;20128;-74
2023/06/10 03:57:03;;;;;;;7.78;5.20;;;;;;;17.93;58.69;101596.66;5093631;28;20049;-75
2023/06/10 03:59:30;;;;;;;8.15;5.55;;;;;;;17.92;59.04;101605.94;5093758;28;20409;-75
2023/06/10 04:01:56;;;;;;;10.40;5.93;;;;;;;17.93;59.13;101598.59;5075573;28;20048;-74
2023/06/10 04:04:23;;;;;;;11.02;5.57;;;;;;;17.94;58.97;101597.38;5091462;28;20048;-74
2023/06/10 04:06:50;;;;;;;8.82;5.85;;;;;;;17.94;59.19;101600.81;5092057;28;20072;-75
2023/06/10 04:09:17;;;;;;;9.88;6.03;;;;;;;17.94;59.45;101608.91;5093299;28;20512;-75
2023/06/10 04:11:43;;;;;;;9.85;6.40;;;;;;;17.95;59.75;101602.31;5092131;28;20136;-75
2023/06/10 04:14:10;;;;;;;12.10;5.82;;;;;;;17.97;59.73;101607.22;5091365;28;20483;-75
2023/06/10 04:16:38;;;;;;;8.77;5.57;;;;;;;18.00;59.13;101611.66;5092187;28;20131;-75
2023/06/10 04:19:05;;;;;;;8.50;5.80;;;;;;;18.03;59.66;101610.72;5090558;28;20048;-75
2023/06/10 04:21:32;;;;;;;8.05;5.80;;;;;;;18.06;59.92;101607.06;5092622;28;20068;-75
2023/06/10 04:23:59;;;;;;;8.98;5.75;;;;;;;18.16;59.18;101611.13;5091833;28;20501;-76
2023/06/10 04:26:27;;;;;;;7.97;5.57;;;;;;;18.31;58.89;101614.50;5093223;28;20079;-75
2023/06/10 04:28:53;;;;;;;7.70;5.72;;;;;;;18.37;59.09;101613.84;5091622;28;20144;-75
2023/06/10 04:31:20;;;;;;;6.30;5.63;;;;;;;18.30;59.49;101615.72;5091679;28;20053;-75
2023/06/10 04:33:47;;;;;;;6.25;5.65;;;;;;;18.32;59.43;101624.09;5093147;28;20047;-75
2023/06/10 04:36:14;;;;;;;7.57;5.80;;;;;;;18.35;59.58;101621.66;5091192;28;20121;-75
2023/06/10 04:38:41;;;;;;;6.22;5.63;;;;;;;18.67;58.80;101620.56;5091697;28;20049;-75
2023/06/10 04:41:08;;;;;;;6.72;5.80;;;;;;;19.63;56.51;101623.63;5091243;28;20049;-75
2023/06/10 04:43:35;;;;;;;6.10;5.50;;;;;;;19.79;55.56;101624.97;5091755;28;20049;-75
2023/06/10 04:46:02;;;;;;;7.15;6.20;;;;;;;19.97;55.43;101624.59;5091579;28;20362;-75
2023/06/10 04:48:30;;;;;;;6.40;5.28;;;;;;;21.20;52.56;101629.59;5090881;28;20055;-75
2023/06/10 04:50:58;;;;;;;7.18;5.93;;;;;;;22.21;50.01;101633.66;5092973;28;20052;-76
2023/06/10 04:53:25;;;;;;;6.35;5.70;;;;;;;23.50;47.16;101627.41;5092633;28;20506;-77
2023/06/10 04:55:52;;;;;;;10.40;5.85;;;;;;;24.61;43.94;101633.53;5093273;28;20050;-75
2023/06/10 04:58:18;;;;;;;8.38;5.90;;;;;;;25.37;42.16;101643.03;5092614;28;20040;-75
2023/06/10 05:00:45;;;;;;;8.70;5.78;;;;;;;25.78;41.07;101636.38;5093112;28;20102;-76
2023/06/10 05:03:11;;;;;;;6.75;6.15;;;;;;;25.96;41.04;101642.97;5090695;28;20072;-76
2023/06/10 05:05:38;;;;;;;12.23;6.20;;;;;;;26.35;40.12;101636.75;5093215;28;20037;-75
2023/06/10 05:08:05;;;;;;;8.15;5.70;;;;;;;26.77;38.94;101638.28;5092138;28;20075;-75
2023/06/10 05:10:34;;;;;;;8.82;5.65;;;;;;;26.78;39.23;101631.56;5092732;28;20040;-76
2023/06/10 05:13:01;;;;;;;6.43;5.75;;;;;;;27.08;38.13;101638.56;5090365;28;20499;-76
2023/06/10 05:15:28;;;;;;;9.23;5.65;;;;;;;26.78;38.07;101637.03;5092310;28;20471;-76
2023/06/10 05:17:57;;;;;;;5.97;5.22;;;;;;;27.15;38.95;101641.38;5091967;28;20048;-76
2023/06/10 05:20:25;;;;;;;8.55;5.95;;;;;;;27.31;37.89;101636.72;5091354;28;20084;-76
2023/06/10 05:22:51;;;;;;;12.73;6.00;;;;;;;27.63;37.88;101636.41;5091115;28;20132;-76
2023/06/10 05:25:19;;;;;;;10.38;6.35;;;;;;;27.90;37.46;101631.47;5092480;28;20123;-76
2023/06/10 05:27:45;;;;;;;7.50;5.95;;;;;;;28.20;37.22;101639.06;5093132;28;20047;-76
2023/06/10 05:30:12;;;;;;;6.78;6.15;;;;;;;28.16;36.40;101642.16;5089800;28;20044;-76
2023/06/10 05:32:39;;;;;;;6.82;5.80;;;;;;;27.81;36.80;101635.44;5092227;28;20489;-76
2023/06/10 05:35:06;;;;;;;7.80;6.10;;;;;;;27.96;37.44;101636.78;5092015;28;20080;-76
2023/06/10 05:37:35;;;;;;;6.57;5.97;;;;;;;27.72;37.23;101648.88;5091415;28;20075;-76
2023/06/10 05:40:01;;;;;;;12.95;6.32;;;;;;;27.74;37.29;101649.78;5092004;28;20514;-76
2023/06/10 05:42:28;;;;;;;9.10;6.03;;;;;;;27.51;37.75;101648.91;5091804;28;20055;-76
2023/06/10 05:44:54;;;;;;;16.30;5.75;;;;;;;27.63;38.05;101649.34;5090322;28;20110;-76
2023/06/10 05:47:21;;;;;;;9.90;5.68;;;;;;;27.60;38.60;101651.16;5090429;28;20056;-76
2023/06/10 05:49:49;;;;;;;6.65;5.95;;;;;;;27.15;38.38;101657.03;5092332;28;20048;-76
2023/06/10 05:52:16;;;;;;;6.25;5.65;;;;;;;27.24;38.89;101656.53;5091628;28;20124;-76
2023/06/10 05:54:42;;;;;;;12.43;6.07;;;;;;;26.95;39.14;101653.00;5092313;28;20043;-76
2023/06/10 05:57:10;;;;;;;10.00;5.82;;;;;;;26.80;39.38;101656.31;5091343;28;20559;-76
2023/06/10 05:59:36;;;;;;;9.77;6.45;;;;;;;26.77;40.23;101657.41;5091752;28;20092;-76
2023/06/10 06:02:03;;;;;;;8.73;6.47;;;;;;;26.49;39.70;101655.28;5092804;28;20228;-76
2023/06/10 06:04:30;;;;;;;8.75;6.32;;;;;;;26.11;40.83;101651.34;5092094;28;20532;-76
2023/06/10 06:06:56;;;;;;;6.68;6.07;;;;;;;26.12;40.74;101652.81;5091944;28;20102;-76
2023/06/10 06:09:23;;;;;;;8.45;5.63;;;;;;;25.96;41.09;101646.44;5090469;28;20049;-77
2023/06/10 06:11:49;;;;;;;7.68;5.68;;;;;;;26.02;41.58;101651.78;5091680;28;20125;-77
2023/06/10 06:14:16;;;;;;;7.95;5.90;;;;;;;25.85;41.36;101644.66;5089539;28;20083;-77
2023/06/10 06:16:43;;;;;;;6.30;5.78;;;;;;;25.79;40.69;101644.03;5090367;28;20052;-77
2023/06/10 06:19:11;;;;;;;7.78;5.68;;;;;;;25.73;41.92;101646.13;5091047;28;20052;-77
2023/06/10 06:21:37;;;;;;;6.50;5.60;;;;;;;25.84;42.34;101643.19;5092684;28;20052;-75
2023/06/10 06:24:04;;;;;;;7.60;5.55;;;;;;;25.80;41.12;101645.50;5092590;28;20409;-75
2023/06/10 06:26:31;;;;;;;5.90;5.40;;;;;;;25.54;42.27;101642.75;5092125;28;20045;-75
2023/06/10 06:28:57;;;;;;;13.10;6.20;;;;;;;25.37;42.88;101640.31;5091896;28;20051;-76
2023/06/10 06:31:24;;;;;;;8.63;5.35;;;;;;;25.42;42.92;101642.19;5090818;28;20488;-77
2023/06/10 06:33:50;;;;;;;8.45;5.70;;;;;;;25.43;42.30;101637.47;5092227;28;20059;-74
2023/06/10 06:36:17;;;;;;;5.95;5.43;;;;;;;25.34;42.31;101635.88;5091092;28;20055;-76
2023/06/10 06:38:43;;;;;;;16.38;5.90;;;;;;;25.37;42.45;101640.31;5092106;28;20551;-75
2023/06/10 06:41:10;;;;;;;8.40;5.88;;;;;;;25.29;42.33;101635.97;5091464;28;20048;-75
2023/06/10 06:43:36;;;;;;;9.65;5.88;;;;;;;25.24;42.14;101635.56;5093975;28;20044;-75
2023/06/10 06:46:22;;;;;;;5.95;5.35;;;;;;;25.34;42.70;101635.16;5095423;28;20152;-76
2023/06/10 06:48:48;;;;;;;6.47;5.75;;;;;;;25.31;42.62;101645.09;5095800;28;20064;-76
2023/06/10 06:51:15;;;;;;;9.38;5.60;;;;;;;25.52;42.41;101637.81;5093522;28;20139;-76
2023/06/10 06:53:44;;;;;;;8.07;5.90;;;;;;;25.66;42.04;101638.56;5095892;28;20120;-78
2023/06/10 06:56:12;;;;;;;10.63;5.40;;;;;;;25.78;41.04;101652.72;5095023;28;20123;-78
2023/06/10 06:58:38;;;;;;;5.88;5.38;;;;;;;25.73;42.90;101645.38;5095162;28;20509;-78
2023/06/10 07:01:05;;;;;;;7.22;5.72;;;;;;;25.78;41.91;101641.81;5093798;28;20052;-77
2023/06/10 07:03:32;;;;;;;8.77;5.43;;;;;;;25.91;41.51;101650.00;5095791;28;20195;-76
2023/06/10 07:05:58;;;;;;;7.05;5.72;;;;;;;25.96;41.36;101653.91;5095501;28;20449;-77
2023/06/10 07:08:25;;;;;;;11.57;5.43;;;;;;;26.04;41.63;101647.25;5094993;28;20041;-76
2023/06/10 07:10:51;;;;;;;6.35;5.75;;;;;;;26.11;40.88;101648.63;5096115;28;20123;-76
2023/06/10 07:13:18;;;;;;;8.65;5.82;;;;;;;26.20;41.13;101653.66;5094307;28;20091;-76
2023/06/10 07:15:45;;;;;;;6.88;5.10;;;;;;;26.14;40.87;101659.22;5095285;28;20052;-77
2023/06/10 07:18:11;;;;;;;7.13;5.32;;;;;;;26.32;41.31;101654.19;5095286;28;20585;-77
2023/06/10 07:20:38;;;;;;;6.05;5.45;;;;;;;26.38;41.09;101658.25;5095330;28;20055;-78
2023/06/10 07:23:04;;;;;;;6.05;5.45;;;;;;;26.42;41.00;101647.72;5095112;28;20052;-76
2023/06/10 07:25:31;;;;;;;7.68;5.43;;;;;;;26.55;41.06;101657.88;5095197;28;20042;-75
2023/06/10 07:27:57;;;;;;;5.63;5.15;;;;;;;26.69;40.42;101655.84;5094758;28;20044;-75
2023/06/10 07:30:24;;;;;;;5.60;5.07;;;;;;;26.80;40.07;101650.84;5094886;28;20493;-76
2023/06/10 07:32:51;;;;;;;9.20;5.13;;;;;;;26.87;40.55;101652.19;5095050;28;20072;-76
2023/06/10 07:35:18;;;;;;;7.28;4.88;;;;;;;27.02;39.29;101654.38;5093130;28;20048;-76
2023/06/10 07:37:45;;;;;;;8.13;5.50;;;;;;;27.04;38.91;101660.75;5094958;28;20053;-76
2023/06/10 07:40:13;;;;;;;10.00;5.20;;;;;;;27.15;38.62;101652.31;5093210;28;20055;-75
2023/06/10 07:42:39;;;;;;;7.47;5.22;;;;;;;27.31;38.79;101664.06;5094485;28;20051;-75
2023/06/10 07:45:06;;;;;;;7.18;5.22;;;;;;;27.39;38.55;101658.66;5094940;28;20055;-75
2023/06/10 07:47:34;;;;;;;5.85;5.18;;;;;;;27.51;40.05;101663.31;5093071;28;20450;-75
2023/06/10 07:50:01;;;;;;;8.80;5.20;;;;;;;27.62;38.63;101664.28;5094801;28;20564;-77
2023/06/10 07:52:28;;;;;;;6.53;5.38;;;;;;;27.69;37.88;101661.63;5093840;28;20079;-75
2023/06/10 07:54:55;;;;;;;6.13;5.22;;;;;;;27.86;37.16;101669.38;5093303;28;20139;-77
2023/06/10 07:57:21;;;;;;;6.13;5.57;;;;;;;27.99;38.15;101661.03;5092564;28;20057;-74
2023/06/10 07:59:48;;;;;;;12.93;5.45;;;;;;;28.16;37.74;101666.78;5094549;28;20045;-75
2023/06/10 08:02:15;;;;;;;8.38;5.50;;;;;;;28.38;36.96;101664.72;5093896;28;20319;-76
2023/06/10 08:04:41;;;;;;;7.10;5.10;;;;;;;28.38;37.19;101667.44;5093036;28;20044;-76
2023/06/10 08:07:08;;;;;;;6.45;5.72;;;;;;;28.57;36.53;101673.31;5094387;28;20073;-74
2023/06/10 08:09:34;;;;;;;7.15;5.78;;;;;;;28.60;37.21;101661.28;5094481;28;20127;-74
2023/06/10 08:12:02;;;;;;;6.38;4.72;;;;;;;28.80;36.76;101665.13;5093626;28;20041;-76
2023/06/10 08:14:29;;;;;;;5.80;5.25;;;;;;;28.94;36.69;101663.72;5092600;28;20048;-76
2023/06/10 08:16:55;;;;;;;15.45;5.38;;;;;;;29.01;35.77;101662.28;5094355;28;20321;-76
2023/06/10 08:19:22;;;;;;;9.73;5.25;;;;;;;29.09;36.01;101660.25;5099884;28;20048;-78
2023/06/10 08:21:48;;;;;;;6.10;5.13;;;;;;;29.08;35.59;101659.53;5094573;28;20041;-75
2023/06/10 08:24:17;;;;;;;6.00;5.13;;;;;;;29.04;35.03;101666.66;5093713;28;20120;-74
2023/06/10 08:26:44;;;;;;;8.15;4.90;;;;;;;29.32;36.23;101660.97;5093621;28;20052;-77
2023/06/10 08:29:12;;;;;;;5.95;5.13;;;;;;;29.42;34.87;101650.94;5093617;28;20079;-75
2023/06/10 08:31:43;;;;;;;9.32;5.38;;;;;;;29.52;35.42;101660.06;5094156;28;20051;-75
2023/06/10 08:34:09;;;;;;;;;;;;;;;29.84;35.82;101655.97;5092801;28;20500;-75
2023/06/10 08:36:36;;;;;;;6.30;5.00;;;;;;;29.88;34.50;101658.31;5092810;28;19936;-74
2023/06/10 08:39:03;;;;;;;6.32;4.78;;;;;;;30.01;33.93;101661.59;5093605;28;20132;-74
2023/06/10 08:41:35;;;;;;;5.80;5.25;;;;;;;29.99;33.72;101657.94;5093927;28;20045;-79
2023/06/10 08:44:09;;;;;;;11.30;5.22;;;;;;;30.00;33.81;101654.63;5094199;28;20087;-79
2023/06/10 08:46:37;;;;;;;7.78;5.13;;;;;;;30.04;33.22;101665.97;5094109;28;20174;-79
2023/06/10 08:49:07;;;;;;;9.57;5.28;;;;;;;30.11;33.79;101658.97;5075610;28;20048;-77
2023/06/10 08:51:36;;;;;;;5.70;4.68;;;;;;;30.35;34.23;101663.09;5094162;28;20036;-75
2023/06/10 08:54:15;;;;;;;8.43;4.57;;;;;;;30.49;33.61;101659.50;5093602;28;20123;-78
2023/06/10 08:56:43;;;;;;;6.30;4.95;;;;;;;30.60;32.84;101658.38;5093735;28;20063;-76
2023/06/10 08:59:10;;;;;;;12.98;5.35;;;;;;;30.68;32.39;101659.06;5093252;28;20055;-76
2023/06/10 09:01:38;;;;;;;8.10;4.70;;;;;;;30.85;32.92;101659.13;5092443;28;20135;-76
2023/06/10 09:04:05;;;;;;;7.80;5.05;;;;;;;30.89;33.50;101666.25;5093591;28;20040;-77
2023/06/10 09:06:33;;;;;;;5.50;5.00;;;;;;;31.00;32.13;101668.53;5093709;28;20098;-79
2023/06/10 09:09:00;;;;;;;5.65;4.30;;;;;;;31.06;31.75;101669.03;5091671;28;20056;-78
2023/06/10 09:11:29;;;;;;;5.20;4.80;;;;;;;31.10;31.10;101663.88;5093518;28;20463;-81
2023/06/10 09:13:58;;;;;;;5.85;4.80;;;;;;;31.11;31.30;101660.56;5091414;28;20060;-81
2023/06/10 09:16:25;;;;;;;4.95;4.45;;;;;;;31.31;31.70;101664.25;5091976;28;20510;-81
2023/06/10 09:18:54;;;;;;;7.60;5.18;;;;;;;31.41;31.07;101667.84;5093064;28;20044;-82
2023/06/10 09:21:22;;;;;;;7.53;5.45;;;;;;;31.33;30.01;101667.16;5089960;28;20048;-83
2023/06/10 09:23:49;;;;;;;8.20;4.53;;;;;;;31.46;29.71;101664.13;5091888;28;20041;-83
2023/06/10 09:26:17;;;;;;;5.50;4.55;;;;;;;31.52;29.74;101663.88;5093270;28;20044;-80
2023/06/10 09:28:50;;;;;;;9.68;4.60;;;;;;;31.61;30.58;101665.97;5103164;28;20110;-80
2023/06/10 09:31:18;;;;;;;6.80;4.70;;;;;;;31.73;30.40;101661.47;5093829;28;20494;-81
2023/06/10 09:33:45;;;;;;;10.20;5.55;;;;;;;31.76;29.05;101656.84;5091882;28;20045;-80
2023/06/10 09:36:21;;;;;;;30.70;6.28;;;;;;;31.82;30.64;101660.09;5091734;28;20048;-79
2023/06/10 09:38:50;;;;;;;9.23;4.40;;;;;;;31.85;29.67;101660.97;5093291;28;20046;-79
2023/06/10 09:41:17;;;;;;;6.03;4.30;;;;;;;31.95;29.05;101661.78;5091793;28;20137;-78
2023/06/10 09:43:46;;;;;;;6.07;4.07;;;;;;;32.06;28.95;101661.97;5093435;28;20457;-79
2023/06/10 09:46:17;;;;;;;5.00;4.47;;;;;;;32.11;28.64;101658.25;5091469;28;20048;-79
2023/06/10 09:48:46;;;;;;;7.82;4.22;;;;;;;31.98;29.04;101658.63;5091953;28;20080;-81
2023/06/10 09:51:14;;;;;;;6.18;4.43;;;;;;;32.02;27.60;101650.66;5091490;28;20053;-81
2023/06/10 09:53:41;;;;;;;4.38;4.10;;;;;;;32.13;28.96;101654.94;5091588;28;20067;-80
2023/06/10 09:56:07;;;;;;;4.80;3.72;;;;;;;32.26;28.19;101651.13;5092989;28;20098;-78
2023/06/10 09:58:43;;;;;;;5.15;4.30;;;;;;;32.43;28.17;101659.31;5092844;28;20076;-78
2023/06/10 10:01:12;;;;;;;7.07;4.38;;;;;;;32.59;28.19;101657.06;5092914;28;20044;-78
2023/06/10 10:03:46;;;;;;;9.50;4.13;;;;;;;32.62;28.30;101651.13;5097929;28;20067;-77
2023/06/10 10:06:15;;;;;;;4.90;4.60;;;;;;;32.64;26.86;101654.06;5092566;28;20052;-78
2023/06/10 10:08:43;;;;;;;4.88;4.40;;;;;;;32.61;27.36;101655.19;5093119;28;20540;-77
2023/06/10 10:11:10;;;;;;;4.32;3.92;;;;;;;32.71;26.30;101655.25;5092631;28;20041;-77
2023/06/10 10:13:37;;;;;;;11.65;4.47;;;;;;;32.52;26.82;101653.13;5093081;28;20091;-78
2023/06/10 10:16:11;;;;;;;5.43;4.18;;;;;;;32.72;27.57;101642.91;5093735;28;20159;-77
2023/06/10 10:18:41;;;;;;;4.22;3.92;;;;;;;32.87;27.12;101636.44;5096812;28;20041;-78
2023/06/10 10:21:12;;;;;;;5.82;3.95;;;;;;;32.91;26.39;101637.47;5094418;28;20106;-77
2023/06/10 10:24:11;;;;;;;4.50;4.10;;;;;;;33.22;26.98;101636.94;5095464;28;20094;-77
2023/06/10 10:26:39;;;;;;;4.13;3.83;;;;;;;33.41;25.97;101637.72;5087610;28;20076;-77
2023/06/10 10:29:23;;;;;;;6.22;4.25;;;;;;;33.28;25.27;101643.66;5096059;28;20060;-78
2023/06/10 10:31:53;;;;;;;7.47;3.80;;;;;;;33.23;24.78;101632.88;5096525;28;20049;-77
2023/06/10 10:34:27;;;;;;;5.70;4.00;;;;;;;33.34;24.94;101640.59;5095865;28;20055;-77
2023/06/10 10:36:54;;;;;;;4.47;4.07;;;;;;;33.16;26.25;101620.69;5095868;28;20136;-76
2023/06/10 10:39:21;;;;;;;7.32;4.35;;;;;;;33.23;25.55;101630.09;5096170;28;20048;-76
2023/06/10 10:41:49;;;;;;;4.55;4.15;;;;;;;33.29;25.13;101628.53;5096422;28;20540;-75
2023/06/10 10:44:16;;;;;;;4.97;3.83;;;;;;;33.33;24.12;101623.31;5095696;28;20120;-75
2023/06/10 10:46:48;;;;;;;7.18;4.22;;;;;;;33.48;25.57;101622.31;5096055;28;20548;-77
2023/06/10 10:49:15;;;;;;;8.10;4.07;;;;;;;33.59;24.06;101621.00;5095774;28;20068;-77
2023/06/10 10:51:58;;;;;;;4.40;4.00;;;;;;;33.83;24.12;101617.22;5095805;28;20071;-76
2023/06/10 10:54:33;;;;;;;4.60;3.97;;;;;;;34.00;23.30;101621.81;5095900;28;20050;-76
2023/06/10 10:57:08;;;;;;;4.05;3.75;;;;;;;34.10;22.99;101625.28;5077593;28;20398;-76
2023/06/10 10:59:55;;;;;;;6.97;3.83;;;;;;;34.21;23.32;101621.19;5093620;28;20486;-76
2023/06/10 11:02:35;;;;;;;5.78;3.70;;;;;;;34.14;22.97;101617.28;5106386;28;20044;-76
2023/06/10 11:05:03;;;;;;;6.45;4.35;;;;;;;33.75;22.69;101620.09;5206480;22;20048;-76
2023/06/10 11:07:34;;;;;;;6.43;3.60;;;;;;;33.75;22.35;101611.81;5016265;28;20077;-76
2023/06/10 11:10:09;;;;;;;4.38;4.07;;;;;;;33.88;22.72;101615.47;5051825;28;20891;-76
2023/06/10 11:12:45;;;;;;;5.10;4.43;;;;;;;33.97;22.93;101612.69;5055054;28;20543;-76
2023/06/10 11:15:13;;;;;;;4.65;4.35;;;;;;;33.93;22.73;101601.38;5043071;28;20076;-75
2023/06/10 11:18:13;;;;;;;4.40;4.00;;;;;;;34.28;23.17;101603.72;5044104;28;20053;-75
2023/06/10 11:20:49;;;;;;;4.57;4.15;;;;;;;34.03;23.25;101604.81;5054573;28;20109;-75
2023/06/10 11:23:42;;;;;;;4.75;4.32;;;;;;;34.21;23.07;101599.09;5054601;28;20064;-77
2023/06/10 11:26:15;;;;;;;7.63;4.53;;;;;;;34.01;22.75;101595.66;5052034;28;20087;-75
2023/06/10 11:29:03;;;;;;;6.63;3.80;;;;;;;34.09;22.96;101598.97;5052245;28;20046;-75
2023/06/10 11:31:32;;;;;;;4.50;4.10;;;;;;;34.06;22.92;101600.88;5054584;28;20045;-75